Time;durP1;ratioP1;P1;durP2;ratioP2;P2;SDS_P1;SDS_P2;PMS_P1;PMS_P2;Temp;Humidity;BMP_temperature;BMP_pressure;BME280_temperature;BME280_humidity;BME280_pressure;Samples;Min_cycle;Max_cycle;Signal;HPM_P1;HPM_P2
2021/12/21 00:01:29;;;;;;;;;30.75;27.00;;;;;;;;5033802;28;45261;-68
2021/12/21 00:03:54;;;;;;;;;27.50;24.00;;;;;;;;5033665;28;45273;-68
2021/12/21 00:06:19;;;;;;;;;27.00;22.50;;;;;;;;5032924;28;45405;-68
2021/12/21 00:08:45;;;;;;;;;21.25;20.25;;;;;;;;5033430;28;46253;-68
2021/12/21 00:11:10;;;;;;;;;26.50;23.25;;;;;;;;5035508;28;45284;-68
2021/12/21 00:13:56;;;;;;;;;20.25;18.50;;;;;;;;5032367;28;45320;-68
2021/12/21 00:16:48;;;;;;;;;24.00;19.75;;;;;;;;5031657;28;45497;-68
2021/12/21 00:21:51;;;;;;;;;28.25;23.50;;;;;;;;5031821;28;45529;-69
2021/12/21 00:24:21;;;;;;;;;19.50;16.75;;;;;;;;5033434;28;45462;-67
2021/12/21 00:26:46;;;;;;;;;21.00;18.00;;;;;;;;5017906;28;45460;-67
2021/12/21 00:29:12;;;;;;;;;15.50;12.25;;;;;;;;5034863;28;47130;-67
2021/12/21 00:31:37;;;;;;;;;19.75;14.75;;;;;;;;5033087;28;45289;-67
2021/12/21 00:34:04;;;;;;;;;15.75;15.75;;;;;;;;5033188;28;45530;-67
2021/12/21 00:36:29;;;;;;;;;21.00;19.00;;;;;;;;5032468;28;45417;-68
2021/12/21 00:38:56;;;;;;;;;18.25;16.25;;;;;;;;5033008;28;45664;-67
2021/12/21 00:41:21;;;;;;;;;21.50;16.50;;;;;;;;5034377;28;45444;-67
2021/12/21 00:43:47;;;;;;;;;22.25;20.00;;;;;;;;5034101;28;45431;-66
2021/12/21 00:46:13;;;;;;;;;16.75;12.25;;;;;;;;5032986;28;45448;-67
2021/12/21 00:48:47;;;;;;;;;18.25;15.00;;;;;;;;5032714;28;46924;-68
2021/12/21 00:51:12;;;;;;;;;14.25;14.00;;;;;;;;5031365;28;45457;-67
2021/12/21 00:53:39;;;;;;;;;19.50;14.50;;;;;;;;5032858;28;45383;-67
2021/12/21 00:56:05;;;;;;;;;14.75;11.50;;;;;;;;5034146;28;45337;-67
2021/12/21 00:58:30;;;;;;;;;22.25;14.75;;;;;;;;5032769;28;45503;-67
2021/12/21 01:00:56;;;;;;;;;19.75;16.00;;;;;;;;5014730;28;45480;-67
2021/12/21 01:03:21;;;;;;;;;17.25;14.00;;;;;;;;5033117;28;45398;-67
2021/12/21 01:05:57;;;;;;;;;23.25;16.75;;;;;;;;5032613;28;45531;-67
2021/12/21 01:08:27;;;;;;;;;20.25;15.75;;;;;;;;5033506;28;46940;-67
2021/12/21 01:11:06;;;;;;;;;21.50;17.50;;;;;;;;5034387;28;45264;-67
2021/12/21 01:13:45;;;;;;;;;18.25;17.50;;;;;;;;5032982;28;45319;-67
2021/12/21 01:17:16;;;;;;;;;18.25;14.75;;;;;;;;5032744;28;45441;-67
2021/12/21 01:19:16;;;;;;;;;16.25;14.50;;;;;;;;5018528;28;45865;-66
2021/12/21 01:21:53;;;;;;;;;27.00;22.00;;;;;;;;5032599;28;45364;-66
2021/12/21 01:24:37;;;;;;;;;17.25;13.50;;;;;;;;5032776;28;45324;-66
2021/12/21 01:27:32;;;;;;;;;17.75;14.00;;;;;;;;5032716;28;45305;-66
2021/12/21 01:35:16;;;;;;;;;20.50;15.50;;;;;;;;4937310;28;45483;-66
2021/12/21 01:40:39;;;;;;;;;15.75;14.00;;;;;;;;4953179;28;45968;-66
2021/12/21 01:43:20;;;;;;;;;16.25;13.75;;;;;;;;4952502;28;45426;-66
2021/12/21 01:51:14;;;;;;;;;12.00;12.00;;;;;;;;4952999;28;45406;-66
2021/12/21 01:53:40;;;;;;;;;17.50;13.75;;;;;;;;4953768;28;45587;-67
2021/12/21 01:56:05;;;;;;;;;17.25;15.75;;;;;;;;4955919;28;45515;-67
2021/12/21 01:58:33;;;;;;;;;14.75;13.75;;;;;;;;4953080;28;45578;-66
2021/12/21 02:00:58;;;;;;;;;22.00;18.00;;;;;;;;4952512;28;45812;-67
2021/12/21 02:03:23;;;;;;;;;17.50;16.00;;;;;;;;4952553;28;47968;-67
2021/12/21 02:05:49;;;;;;;;;15.00;11.50;;;;;;;;4953317;28;45688;-67
2021/12/21 02:08:14;;;;;;;;;16.25;15.25;;;;;;;;4966954;28;45453;-67
2021/12/21 02:10:40;;;;;;;;;17.50;14.50;;;;;;;;5034158;28;47091;-67
2021/12/21 02:13:05;;;;;;;;;16.00;15.25;;;;;;;;5034025;28;47174;-67
2021/12/21 02:15:30;;;;;;;;;16.25;14.50;;;;;;;;5035581;28;45392;-67
2021/12/21 02:21:07;;;;;;;;;22.75;16.00;;;;;;;;5035534;28;45391;-67
2021/12/21 02:23:34;;;;;;;;;19.00;15.00;;;;;;;;5033195;28;45416;-67
2021/12/21 02:31:08;;;;;;;;;18.00;15.25;;;;;;;;5034857;28;46246;-67
2021/12/21 02:33:34;;;;;;;;;18.00;16.75;;;;;;;;5035076;28;45475;-67
2021/12/21 02:36:00;;;;;;;;;21.00;18.75;;;;;;;;5035194;28;45454;-67
2021/12/21 02:38:26;;;;;;;;;20.75;14.25;;;;;;;;5035438;28;45293;-67
2021/12/21 02:40:51;;;;;;;;;18.50;15.25;;;;;;;;5036162;28;46091;-68
2021/12/21 02:43:17;;;;;;;;;17.75;16.00;;;;;;;;5034217;28;45400;-67
2021/12/21 02:45:42;;;;;;;;;19.00;17.00;;;;;;;;5034791;28;45404;-68
2021/12/21 02:48:08;;;;;;;;;19.00;16.50;;;;;;;;5033579;28;45470;-68
2021/12/21 02:50:35;;;;;;;;;19.00;16.00;;;;;;;;5034891;28;45539;-68
2021/12/21 02:53:02;;;;;;;;;18.00;16.25;;;;;;;;5036049;28;45454;-68
2021/12/21 02:55:27;;;;;;;;;19.25;16.75;;;;;;;;5035053;28;45586;-67
2021/12/21 02:57:52;;;;;;;;;15.00;14.00;;;;;;;;5035019;28;45547;-68
2021/12/21 03:00:18;;;;;;;;;19.00;14.00;;;;;;;;5014675;28;46035;-67
2021/12/21 03:02:43;;;;;;;;;19.00;16.75;;;;;;;;5034733;28;45522;-67
2021/12/21 03:05:08;;;;;;;;;18.50;15.75;;;;;;;;5032263;28;45473;-67
2021/12/21 03:10:02;;;;;;;;;22.00;17.25;;;;;;;;5034469;28;45551;-68
2021/12/21 03:14:53;;;;;;;;;16.75;15.50;;;;;;;;5034295;28;45439;-67
2021/12/21 03:17:18;;;;;;;;;15.75;14.75;;;;;;;;5035848;28;45528;-68
2021/12/21 03:19:44;;;;;;;;;19.25;15.25;;;;;;;;5034675;28;45321;-67
2021/12/21 03:22:10;;;;;;;;;21.50;19.25;;;;;;;;5034104;28;47662;-67
2021/12/21 03:24:36;;;;;;;;;22.00;17.50;;;;;;;;5034322;28;45460;-67
2021/12/21 03:27:02;;;;;;;;;17.25;15.00;;;;;;;;5032938;28;45296;-68
2021/12/21 03:29:27;;;;;;;;;14.00;13.75;;;;;;;;5034528;28;45475;-67
2021/12/21 03:31:53;;;;;;;;;16.50;14.25;;;;;;;;5033555;28;45411;-67
2021/12/21 03:34:18;;;;;;;;;15.25;11.75;;;;;;;;5034249;28;45269;-67
2021/12/21 03:36:43;;;;;;;;;21.00;19.00;;;;;;;;5034031;28;45497;-68
2021/12/21 03:39:16;;;;;;;;;20.00;14.00;;;;;;;;5033999;28;47110;-67
2021/12/21 03:41:45;;;;;;;;;15.75;13.75;;;;;;;;5018489;28;45571;-67
2021/12/21 03:44:11;;;;;;;;;15.75;14.25;;;;;;;;5031694;28;45388;-67
2021/12/21 03:46:43;;;;;;;;;14.25;14.25;;;;;;;;5033814;28;45455;-67
2021/12/21 03:49:33;;;;;;;;;12.50;9.25;;;;;;;;5034036;28;47024;-68
2021/12/21 03:51:54;;;;;;;;;17.50;15.50;;;;;;;;5033430;28;45527;-67
2021/12/21 03:54:19;;;;;;;;;16.25;14.50;;;;;;;;5033507;28;45693;-67
2021/12/21 03:56:48;;;;;;;;;16.50;13.75;;;;;;;;5032824;28;45331;-68
2021/12/21 03:59:13;;;;;;;;;17.00;14.00;;;;;;;;5034842;28;46322;-67
2021/12/21 04:01:39;;;;;;;;;14.75;13.75;;;;;;;;5033820;28;45480;-67
2021/12/21 04:04:04;;;;;;;;;14.25;13.00;;;;;;;;5033902;28;45470;-67
2021/12/21 04:06:29;;;;;;;;;15.25;12.75;;;;;;;;5032482;28;45459;-67
2021/12/21 04:08:54;;;;;;;;;15.75;14.25;;;;;;;;5032243;28;47259;-67
2021/12/21 04:11:20;;;;;;;;;13.25;12.50;;;;;;;;5034971;28;45261;-67
2021/12/21 04:13:45;;;;;;;;;15.75;13.50;;;;;;;;5034166;28;45451;-67
2021/12/21 04:16:10;;;;;;;;;18.75;15.50;;;;;;;;5033082;28;45663;-67
2021/12/21 04:18:38;;;;;;;;;15.75;12.25;;;;;;;;5033335;28;46104;-68
2021/12/21 04:21:04;;;;;;;;;17.25;15.00;;;;;;;;5033532;28;45519;-67
2021/12/21 04:23:29;;;;;;;;;13.50;13.00;;;;;;;;5034129;28;45381;-67
2021/12/21 04:25:54;;;;;;;;;14.75;12.00;;;;;;;;5035124;28;45504;-67
2021/12/21 04:28:19;;;;;;;;;16.00;14.50;;;;;;;;5014750;28;47178;-67
2021/12/21 04:30:45;;;;;;;;;15.25;12.25;;;;;;;;5033374;28;45524;-67
2021/12/21 04:33:10;;;;;;;;;18.00;17.25;;;;;;;;5033725;28;45479;-67
2021/12/21 04:35:35;;;;;;;;;19.25;17.75;;;;;;;;5033047;28;45277;-67
2021/12/21 04:38:13;;;;;;;;;18.75;15.00;;;;;;;;5035096;28;46094;-67
2021/12/21 04:40:42;;;;;;;;;14.50;10.25;;;;;;;;5012856;28;45468;-67
2021/12/21 04:43:08;;;;;;;;;16.00;13.25;;;;;;;;5012459;28;49301;-67
2021/12/21 04:45:33;;;;;;;;;21.00;17.00;;;;;;;;5011123;28;45595;-67
2021/12/21 04:47:58;;;;;;;;;24.50;20.00;;;;;;;;5011404;28;46146;-67
2021/12/21 04:50:24;;;;;;;;;16.50;15.50;;;;;;;;5013628;28;45541;-67
2021/12/21 04:52:49;;;;;;;;;18.75;14.75;;;;;;;;5014260;28;45372;-68
2021/12/21 04:55:14;;;;;;;;;20.75;14.00;;;;;;;;5012513;28;45359;-67
2021/12/21 04:57:41;;;;;;;;;15.50;15.00;;;;;;;;5012445;28;45960;-67
2021/12/21 05:00:07;;;;;;;;;19.75;19.00;;;;;;;;5012599;28;45748;-67
2021/12/21 05:02:33;;;;;;;;;19.50;18.00;;;;;;;;5012947;28;45416;-67
2021/12/21 05:04:58;;;;;;;;;15.00;13.50;;;;;;;;5014847;28;45435;-68
2021/12/21 05:07:26;;;;;;;;;19.25;18.00;;;;;;;;4996328;28;46245;-68
2021/12/21 05:09:56;;;;;;;;;14.00;14.00;;;;;;;;5015478;28;45420;-68
2021/12/21 05:12:22;;;;;;;;;18.00;16.25;;;;;;;;5015393;28;45480;-68
2021/12/21 05:14:47;;;;;;;;;14.50;14.50;;;;;;;;5016207;28;45459;-67
2021/12/21 05:17:13;;;;;;;;;16.50;15.50;;;;;;;;5017724;28;45457;-67
2021/12/21 05:19:38;;;;;;;;;19.25;14.50;;;;;;;;5016173;28;45478;-67
2021/12/21 05:22:03;;;;;;;;;22.00;20.00;;;;;;;;5015730;28;45321;-67
2021/12/21 05:24:28;;;;;;;;;22.75;18.75;;;;;;;;5014339;28;45503;-66
2021/12/21 05:26:54;;;;;;;;;12.75;12.75;;;;;;;;5013552;28;46139;-68
2021/12/21 05:29:20;;;;;;;;;21.50;18.00;;;;;;;;5017463;28;45365;-67
2021/12/21 05:31:45;;;;;;;;;25.00;18.25;;;;;;;;5016511;28;45396;-67
2021/12/21 05:34:10;;;;;;;;;17.25;15.00;;;;;;;;5015646;28;45551;-67
2021/12/21 05:36:35;;;;;;;;;23.25;18.50;;;;;;;;5015200;28;46322;-67
2021/12/21 05:39:04;;;;;;;;;21.50;17.50;;;;;;;;5022670;28;45471;-67
2021/12/21 05:44:13;;;;;;;;;17.50;13.50;;;;;;;;5033674;28;45302;-69
2021/12/21 05:46:38;;;;;;;;;17.00;15.50;;;;;;;;5033456;28;47208;-68
2021/12/21 05:49:03;;;;;;;;;16.50;16.25;;;;;;;;5016742;28;45650;-68
2021/12/21 05:51:29;;;;;;;;;23.75;17.75;;;;;;;;5034960;28;45325;-68
2021/12/21 05:53:54;;;;;;;;;23.75;21.00;;;;;;;;5034731;28;45337;-68
2021/12/21 05:56:19;;;;;;;;;19.75;18.00;;;;;;;;5036268;28;47047;-68
2021/12/21 05:58:44;;;;;;;;;17.00;17.00;;;;;;;;5035226;28;45291;-68
2021/12/21 06:01:10;;;;;;;;;21.25;18.00;;;;;;;;5034374;28;45537;-68
2021/12/21 06:03:35;;;;;;;;;27.75;24.25;;;;;;;;5028826;28;45343;-67
2021/12/21 06:06:00;;;;;;;;;16.50;13.50;;;;;;;;5032373;28;46363;-67
2021/12/21 06:08:26;;;;;;;;;31.50;30.25;;;;;;;;5034459;28;45483;-69
2021/12/21 06:10:54;;;;;;;;;31.00;24.50;;;;;;;;5035699;28;45398;-69
2021/12/21 06:26:40;;;;;;;;;27.50;22.75;;;;;;;;5033244;28;45801;-68
2021/12/21 06:29:05;;;;;;;;;28.25;26.75;;;;;;;;5035658;28;45349;-68
2021/12/21 06:31:31;;;;;;;;;25.25;23.25;;;;;;;;5033248;28;45382;-67
2021/12/21 06:33:56;;;;;;;;;29.50;24.25;;;;;;;;5033786;28;45254;-67
2021/12/21 06:36:21;;;;;;;;;27.50;24.75;;;;;;;;5033358;28;46093;-68
2021/12/21 06:38:47;;;;;;;;;18.75;15.50;;;;;;;;5033335;28;45569;-68
2021/12/21 06:41:12;;;;;;;;;28.75;26.50;;;;;;;;5036265;28;45475;-71
2021/12/21 06:43:38;;;;;;;;;31.25;24.75;;;;;;;;5032306;28;45563;-68
2021/12/21 06:46:13;;;;;;;;;29.50;24.75;;;;;;;;5031769;28;45523;-68
2021/12/21 06:53:52;;;;;;;;;27.00;21.25;;;;;;;;5033306;28;45425;-69
2021/12/21 06:56:18;;;;;;;;;22.50;18.25;;;;;;;;5034623;28;46133;-67
2021/12/21 06:58:43;;;;;;;;;21.50;18.00;;;;;;;;5033266;28;45396;-67
2021/12/21 07:01:08;;;;;;;;;35.75;23.50;;;;;;;;5033028;28;45725;-68
2021/12/21 07:03:34;;;;;;;;;23.25;19.75;;;;;;;;5032915;28;45517;-69
2021/12/21 07:06:01;;;;;;;;;18.25;15.75;;;;;;;;5033350;28;47911;-68
2021/12/21 07:08:29;;;;;;;;;20.75;20.75;;;;;;;;5033731;28;45566;-69
2021/12/21 07:11:24;;;;;;;;;28.75;22.75;;;;;;;;5033491;28;45448;-69
2021/12/21 07:19:26;;;;;;;;;24.75;17.25;;;;;;;;4970697;28;45390;-69
2021/12/21 07:21:51;;;;;;;;;26.75;20.00;;;;;;;;4969325;28;45513;-68
2021/12/21 07:24:16;;;;;;;;;26.25;23.25;;;;;;;;4969799;28;45532;-68
2021/12/21 07:26:41;;;;;;;;;26.00;26.00;;;;;;;;4971350;28;46129;-69
2021/12/21 07:29:07;;;;;;;;;25.75;23.75;;;;;;;;4971746;28;45437;-68
2021/12/21 07:31:33;;;;;;;;;24.00;22.50;;;;;;;;4970566;28;45365;-67
2021/12/21 07:33:58;;;;;;;;;28.75;19.25;;;;;;;;4970577;28;45450;-68
2021/12/21 07:36:32;;;;;;;;;34.25;27.75;;;;;;;;4969651;28;46183;-68
2021/12/21 07:39:02;;;;;;;;;26.00;21.25;;;;;;;;4970036;28;45403;-68
2021/12/21 07:41:27;;;;;;;;;35.00;26.50;;;;;;;;4986642;28;46025;-69
2021/12/21 07:43:52;;;;;;;;;25.75;22.25;;;;;;;;4985359;28;45342;-69
2021/12/21 07:46:18;;;;;;;;;27.50;25.50;;;;;;;;4981164;28;46159;-67
2021/12/21 07:48:43;;;;;;;;;29.25;24.50;;;;;;;;4981364;28;45382;-68
2021/12/21 07:51:09;;;;;;;;;22.50;18.25;;;;;;;;5018181;28;45980;-69
2021/12/21 07:53:35;;;;;;;;;27.00;20.75;;;;;;;;5026466;28;45577;-68
2021/12/21 07:56:02;;;;;;;;;29.75;22.50;;;;;;;;5033259;28;46036;-68
2021/12/21 07:58:29;;;;;;;;;24.75;21.00;;;;;;;;5030279;28;45313;-69
2021/12/21 08:00:54;;;;;;;;;33.75;28.50;;;;;;;;5030329;28;45507;-68
2021/12/21 08:03:20;;;;;;;;;28.75;24.50;;;;;;;;5029541;28;45375;-69
2021/12/21 08:05:48;;;;;;;;;28.00;26.00;;;;;;;;5014673;28;48065;-69
2021/12/21 08:08:18;;;;;;;;;28.25;25.25;;;;;;;;5031592;28;45504;-67
2021/12/21 08:10:52;;;;;;;;;38.25;26.75;;;;;;;;5030091;28;45476;-69
2021/12/21 08:13:17;;;;;;;;;25.75;22.75;;;;;;;;5030813;28;45840;-69
2021/12/21 08:15:43;;;;;;;;;28.50;25.25;;;;;;;;5031066;28;46391;-69
2021/12/21 08:18:08;;;;;;;;;35.50;23.00;;;;;;;;5030487;28;45565;-69
2021/12/21 08:20:35;;;;;;;;;31.50;28.25;;;;;;;;5030468;28;45553;-68
2021/12/21 08:23:00;;;;;;;;;25.25;21.00;;;;;;;;5032500;28;45696;-71
2021/12/21 08:25:27;;;;;;;;;25.00;20.25;;;;;;;;5030391;28;45400;-68
2021/12/21 08:27:53;;;;;;;;;37.50;33.75;;;;;;;;5030594;28;45304;-68
2021/12/21 08:30:18;;;;;;;;;19.75;18.25;;;;;;;;5031310;28;45583;-68
2021/12/21 08:32:43;;;;;;;;;23.25;21.00;;;;;;;;5030448;28;45502;-69
2021/12/21 08:35:12;;;;;;;;;27.25;23.25;;;;;;;;5031316;28;46003;-69
2021/12/21 08:37:37;;;;;;;;;26.50;22.00;;;;;;;;5030323;28;45488;-68
2021/12/21 08:40:03;;;;;;;;;26.50;23.25;;;;;;;;5030288;28;45476;-68
2021/12/21 08:42:28;;;;;;;;;27.75;24.00;;;;;;;;5028487;28;45448;-69
2021/12/21 08:44:53;;;;;;;;;31.25;21.50;;;;;;;;5029482;28;46192;-68
2021/12/21 08:47:19;;;;;;;;;23.25;18.25;;;;;;;;5031741;28;45526;-70
2021/12/21 08:49:44;;;;;;;;;30.50;27.50;;;;;;;;5031136;28;45466;-68
2021/12/21 08:52:10;;;;;;;;;22.50;21.75;;;;;;;;5030798;28;45481;-69
2021/12/21 08:54:35;;;;;;;;;26.00;23.75;;;;;;;;5029434;28;46121;-70
2021/12/21 08:57:00;;;;;;;;;36.00;28.00;;;;;;;;5029402;28;45574;-69
2021/12/21 08:59:25;;;;;;;;;30.75;27.00;;;;;;;;5030892;28;45441;-67
2021/12/21 09:01:53;;;;;;;;;32.25;26.00;;;;;;;;5031720;28;45297;-68
2021/12/21 09:04:20;;;;;;;;;28.25;21.75;;;;;;;;5029910;28;46980;-69
2021/12/21 09:06:45;;;;;;;;;30.25;25.25;;;;;;;;5030225;28;45474;-69
2021/12/21 09:09:10;;;;;;;;;24.25;20.75;;;;;;;;5030741;28;45801;-68
2021/12/21 09:11:37;;;;;;;;;25.75;24.50;;;;;;;;5030585;28;45526;-69
2021/12/21 09:14:02;;;;;;;;;33.00;28.25;;;;;;;;5032854;28;46173;-69
2021/12/21 09:16:27;;;;;;;;;26.25;22.00;;;;;;;;5029976;28;45512;-66
2021/12/21 09:18:53;;;;;;;;;20.75;20.50;;;;;;;;5030588;28;45375;-68
2021/12/21 09:21:18;;;;;;;;;28.75;22.25;;;;;;;;5028880;28;45341;-68
2021/12/21 09:23:43;;;;;;;;;31.00;26.25;;;;;;;;5030578;28;46282;-68
2021/12/21 09:26:08;;;;;;;;;23.75;18.25;;;;;;;;5032151;28;45416;-68
2021/12/21 09:28:33;;;;;;;;;21.25;17.75;;;;;;;;5030181;28;45337;-70
2021/12/21 09:30:59;;;;;;;;;23.25;22.25;;;;;;;;5029169;28;45414;-68
2021/12/21 09:33:24;;;;;;;;;20.75;19.00;;;;;;;;5028886;28;45492;-68
2021/12/21 09:35:51;;;;;;;;;24.50;21.75;;;;;;;;5029636;28;45487;-69
2021/12/21 09:38:16;;;;;;;;;31.25;24.50;;;;;;;;5031795;28;45246;-70
2021/12/21 09:40:42;;;;;;;;;25.25;24.00;;;;;;;;5030403;28;45532;-68
2021/12/21 09:43:08;;;;;;;;;24.75;23.25;;;;;;;;5012064;28;47992;-68
2021/12/21 09:45:33;;;;;;;;;24.25;23.25;;;;;;;;5030437;28;45824;-69
2021/12/21 09:47:59;;;;;;;;;24.00;20.50;;;;;;;;5030339;28;45365;-68
2021/12/21 09:50:25;;;;;;;;;21.00;18.00;;;;;;;;5031610;28;45305;-68
2021/12/21 09:52:51;;;;;;;;;45.75;38.75;;;;;;;;5031814;28;47115;-68
2021/12/21 09:55:21;;;;;;;;;67.00;53.00;;;;;;;;5034434;28;45471;-69
2021/12/21 09:57:47;;;;;;;;;53.25;44.50;;;;;;;;5031718;28;45501;-69
2021/12/21 10:00:14;;;;;;;;;20.00;19.25;;;;;;;;5032151;28;45516;-68
2021/12/21 10:02:39;;;;;;;;;25.75;20.00;;;;;;;;5032969;28;46992;-68
2021/12/21 10:05:09;;;;;;;;;45.75;37.75;;;;;;;;5033527;28;45436;-68
2021/12/21 10:07:35;;;;;;;;;33.75;32.00;;;;;;;;5032674;28;45428;-68
2021/12/21 10:10:03;;;;;;;;;37.00;31.00;;;;;;;;5033751;28;45221;-69
2021/12/21 10:12:30;;;;;;;;;19.25;18.25;;;;;;;;5032386;28;46408;-69
2021/12/21 10:15:06;;;;;;;;;15.75;14.75;;;;;;;;5032214;28;46922;-68
2021/12/21 10:17:33;;;;;;;;;25.75;18.75;;;;;;;;5034015;28;45594;-68
2021/12/21 10:19:59;;;;;;;;;24.50;21.50;;;;;;;;5034885;28;45520;-68
2021/12/21 10:22:24;;;;;;;;;22.75;18.50;;;;;;;;5032960;28;45337;-68
2021/12/21 10:24:51;;;;;;;;;31.00;25.75;;;;;;;;5029425;28;45471;-67
2021/12/21 10:27:18;;;;;;;;;25.00;20.75;;;;;;;;5029994;28;45392;-68
2021/12/21 10:29:54;;;;;;;;;35.50;31.50;;;;;;;;5024469;28;45211;-68
2021/12/21 10:32:24;;;;;;;;;24.50;21.50;;;;;;;;5031625;28;45402;-70
2021/12/21 10:34:50;;;;;;;;;30.25;27.25;;;;;;;;5031405;28;45409;-68
2021/12/21 10:37:20;;;;;;;;;20.75;18.50;;;;;;;;5028545;28;45516;-68
2021/12/21 10:39:45;;;;;;;;;24.75;24.75;;;;;;;;5030933;28;45665;-67
2021/12/21 10:42:10;;;;;;;;;31.75;24.75;;;;;;;;5030814;28;46095;-67
2021/12/21 10:44:37;;;;;;;;;32.25;22.75;;;;;;;;5032440;28;45359;-68
2021/12/21 10:47:03;;;;;;;;;30.00;24.75;;;;;;;;5034688;28;46154;-69
2021/12/21 10:49:28;;;;;;;;;28.75;25.00;;;;;;;;5033101;28;45473;-69
2021/12/21 10:51:55;;;;;;;;;27.00;22.25;;;;;;;;5032053;28;46134;-68
2021/12/21 10:54:31;;;;;;;;;24.00;23.50;;;;;;;;5028882;28;45809;-68
2021/12/21 10:57:00;;;;;;;;;23.00;21.00;;;;;;;;5031796;28;45581;-67
2021/12/21 10:59:32;;;;;;;;;37.00;31.25;;;;;;;;5032370;28;45436;-69
2021/12/21 11:02:04;;;;;;;;;25.25;24.75;;;;;;;;5032126;28;46766;-70
2021/12/21 11:04:34;;;;;;;;;23.25;20.75;;;;;;;;5029785;28;45491;-69
2021/12/21 11:07:08;;;;;;;;;21.75;21.75;;;;;;;;5032583;28;45772;-69
2021/12/21 11:09:34;;;;;;;;;32.75;27.00;;;;;;;;5031510;28;45903;-70
2021/12/21 11:12:00;;;;;;;;;26.00;24.50;;;;;;;;5031529;28;45606;-68
2021/12/21 11:14:29;;;;;;;;;27.50;23.50;;;;;;;;5032162;28;45979;-68
2021/12/21 11:16:54;;;;;;;;;21.50;19.50;;;;;;;;5030088;28;45366;-69
2021/12/21 11:19:21;;;;;;;;;23.50;21.75;;;;;;;;5029078;28;45686;-68
2021/12/21 11:21:47;;;;;;;;;23.50;22.50;;;;;;;;5031795;28;45927;-70
2021/12/21 11:24:14;;;;;;;;;23.50;19.75;;;;;;;;5031108;28;45953;-68
2021/12/21 11:26:39;;;;;;;;;21.25;18.25;;;;;;;;5031923;28;45442;-69
2021/12/21 11:29:07;;;;;;;;;26.25;24.00;;;;;;;;5015359;28;45366;-69
2021/12/21 11:31:35;;;;;;;;;19.00;17.00;;;;;;;;5031523;28;47139;-68
2021/12/21 11:34:00;;;;;;;;;26.00;24.00;;;;;;;;5031819;28;45399;-69
2021/12/21 11:39:10;;;;;;;;;22.50;21.00;;;;;;;;5026481;28;45482;-69
2021/12/21 11:41:37;;;;;;;;;27.75;24.50;;;;;;;;5031559;28;45564;-69
2021/12/21 11:44:08;;;;;;;;;21.25;17.50;;;;;;;;5031932;28;45371;-68
2021/12/21 11:46:39;;;;;;;;;33.50;29.75;;;;;;;;5033157;28;45590;-70
2021/12/21 11:49:09;;;;;;;;;37.25;31.00;;;;;;;;5028537;28;45517;-68
2021/12/21 11:51:34;;;;;;;;;32.75;29.00;;;;;;;;5027769;28;46610;-69
2021/12/21 11:53:59;;;;;;;;;28.25;25.00;;;;;;;;5029636;28;45503;-69
2021/12/21 11:56:26;;;;;;;;;24.25;21.75;;;;;;;;5031689;28;45206;-68
2021/12/21 11:58:52;;;;;;;;;29.50;25.00;;;;;;;;5030708;28;45457;-69
2021/12/21 12:01:23;;;;;;;;;28.25;23.75;;;;;;;;5031455;28;47095;-68
2021/12/21 12:04:09;;;;;;;;;23.75;21.75;;;;;;;;5030316;28;46557;-69
2021/12/21 12:06:49;;;;;;;;;22.25;18.50;;;;;;;;5030986;28;45561;-68
2021/12/21 12:09:27;;;;;;;;;23.00;17.25;;;;;;;;5031215;28;45516;-69
2021/12/21 12:12:04;;;;;;;;;22.50;20.00;;;;;;;;5016489;28;47246;-70
2021/12/21 12:14:29;;;;;;;;;27.25;26.25;;;;;;;;5031218;28;45642;-68
2021/12/21 12:16:56;;;;;;;;;35.00;31.75;;;;;;;;5031583;28;45478;-69
2021/12/21 12:19:26;;;;;;;;;20.00;18.50;;;;;;;;5031073;28;45223;-69
2021/12/21 12:21:55;;;;;;;;;24.50;21.00;;;;;;;;5029927;28;46213;-69
2021/12/21 12:24:22;;;;;;;;;29.50;22.00;;;;;;;;5024209;28;45409;-70
2021/12/21 12:26:56;;;;;;;;;28.50;26.00;;;;;;;;5031103;28;45501;-70
2021/12/21 12:29:21;;;;;;;;;25.75;21.50;;;;;;;;5032534;28;45163;-71
2021/12/21 12:32:07;;;;;;;;;30.25;28.25;;;;;;;;5032082;28;45426;-69
2021/12/21 12:34:34;;;;;;;;;25.00;23.00;;;;;;;;5027950;28;45298;-71
2021/12/21 12:36:59;;;;;;;;;23.00;18.25;;;;;;;;5030017;28;45537;-69
2021/12/21 12:39:27;;;;;;;;;22.50;17.50;;;;;;;;5030684;28;45401;-70
2021/12/21 12:41:52;;;;;;;;;26.00;20.75;;;;;;;;5030493;28;46231;-70
2021/12/21 12:44:22;;;;;;;;;26.00;25.00;;;;;;;;5032852;28;45415;-69
2021/12/21 12:46:52;;;;;;;;;20.00;16.75;;;;;;;;5029031;28;45392;-70
2021/12/21 12:49:21;;;;;;;;;19.50;18.50;;;;;;;;5027956;28;45336;-69
2021/12/21 12:51:46;;;;;;;;;26.75;25.00;;;;;;;;5030108;28;47087;-69
2021/12/21 12:54:14;;;;;;;;;23.50;21.00;;;;;;;;5030857;28;45253;-69
2021/12/21 12:56:40;;;;;;;;;24.00;24.00;;;;;;;;5030837;28;45436;-68
2021/12/21 12:59:05;;;;;;;;;25.75;25.00;;;;;;;;5024497;28;45410;-71
2021/12/21 13:01:32;;;;;;;;;23.50;20.50;;;;;;;;5028901;28;46399;-69
2021/12/21 13:04:00;;;;;;;;;22.75;19.50;;;;;;;;5025398;28;45543;-68
2021/12/21 13:06:27;;;;;;;;;33.50;27.00;;;;;;;;5029593;28;45385;-70
2021/12/21 13:08:53;;;;;;;;;26.00;22.25;;;;;;;;5030495;28;45524;-69
2021/12/21 13:11:24;;;;;;;;;26.00;26.00;;;;;;;;5031872;28;46131;-71
2021/12/21 13:13:49;;;;;;;;;26.50;23.50;;;;;;;;5031499;28;45566;-73
2021/12/21 13:16:19;;;;;;;;;17.25;17.25;;;;;;;;5028819;28;45325;-67
2021/12/21 13:19:04;;;;;;;;;23.00;21.75;;;;;;;;5027601;28;45388;-68
2021/12/21 13:21:32;;;;;;;;;25.25;20.50;;;;;;;;5031121;28;45525;-66
2021/12/21 13:24:03;;;;;;;;;35.75;30.75;;;;;;;;5027800;28;45586;-66
2021/12/21 13:26:33;;;;;;;;;31.25;27.00;;;;;;;;5031099;28;45389;-65
2021/12/21 13:28:59;;;;;;;;;20.25;19.50;;;;;;;;5033503;28;45301;-65
2021/12/21 13:31:25;;;;;;;;;20.50;19.00;;;;;;;;5034405;28;45523;-66
2021/12/21 13:33:52;;;;;;;;;26.50;25.00;;;;;;;;5033760;28;45541;-66
2021/12/21 13:36:17;;;;;;;;;26.50;23.00;;;;;;;;5033837;28;45372;-66
2021/12/21 13:38:42;;;;;;;;;25.25;24.00;;;;;;;;5033370;28;45428;-64
2021/12/21 13:41:12;;;;;;;;;28.25;25.50;;;;;;;;5017719;28;47670;-66
2021/12/21 13:43:39;;;;;;;;;27.00;23.25;;;;;;;;5015516;28;46162;-66
2021/12/21 13:46:05;;;;;;;;;22.75;18.25;;;;;;;;5033370;28;45568;-65
2021/12/21 13:48:31;;;;;;;;;28.75;26.50;;;;;;;;5011849;28;46146;-67
2021/12/21 13:51:13;;;;;;;;;26.50;22.50;;;;;;;;5032874;28;45345;-66
2021/12/21 13:53:46;;;;;;;;;28.50;25.25;;;;;;;;5032281;28;45443;-67
2021/12/21 13:56:13;;;;;;;;;23.25;21.00;;;;;;;;5035741;28;45480;-67
2021/12/21 13:58:39;;;;;;;;;26.75;25.50;;;;;;;;5033234;28;45441;-66
2021/12/21 14:01:04;;;;;;;;;30.75;28.50;;;;;;;;5026942;28;46294;-64
2021/12/21 14:03:37;;;;;;;;;26.00;22.75;;;;;;;;5026039;28;45336;-66
2021/12/21 14:06:10;;;;;;;;;27.50;21.50;;;;;;;;5031624;28;45696;-66
2021/12/21 14:08:36;;;;;;;;;20.25;19.25;;;;;;;;5032539;28;45671;-67
2021/12/21 14:11:02;;;;;;;;;24.25;23.75;;;;;;;;5035007;28;46146;-67
2021/12/21 14:13:29;;;;;;;;;21.50;17.00;;;;;;;;5032284;28;45407;-66
2021/12/21 14:15:54;;;;;;;;;26.00;20.75;;;;;;;;5032856;28;45356;-66
2021/12/21 14:18:19;;;;;;;;;23.75;23.25;;;;;;;;5032283;28;45388;-65
2021/12/21 14:20:46;;;;;;;;;27.00;27.00;;;;;;;;5031665;28;47025;-66
2021/12/21 14:23:21;;;;;;;;;21.75;19.75;;;;;;;;5033929;28;45879;-64
2021/12/21 14:25:46;;;;;;;;;23.00;20.00;;;;;;;;5033518;28;45589;-66
2021/12/21 14:28:12;;;;;;;;;28.75;26.50;;;;;;;;5032511;28;45389;-65
2021/12/21 14:30:38;;;;;;;;;27.50;25.75;;;;;;;;5030576;28;46023;-66
2021/12/21 14:33:07;;;;;;;;;23.75;18.00;;;;;;;;5013735;28;45701;-65
2021/12/21 14:35:33;;;;;;;;;23.50;22.50;;;;;;;;5032071;28;45415;-66
2021/12/21 14:38:08;;;;;;;;;21.50;20.75;;;;;;;;5033837;28;45394;-65
2021/12/21 14:40:45;;;;;;;;;23.75;22.25;;;;;;;;5031713;28;46528;-67
2021/12/21 14:43:19;;;;;;;;;27.00;22.00;;;;;;;;5029299;28;45731;-67
2021/12/21 14:45:46;;;;;;;;;32.25;25.50;;;;;;;;5027998;28;45308;-66
2021/12/21 14:48:18;;;;;;;;;30.50;27.25;;;;;;;;5032301;28;45671;-66
2021/12/21 14:50:48;;;;;;;;;26.50;24.75;;;;;;;;5031486;28;45511;-66
2021/12/21 14:53:17;;;;;;;;;22.50;17.25;;;;;;;;5029611;28;45372;-65
2021/12/21 14:55:43;;;;;;;;;26.25;22.00;;;;;;;;5033011;28;45677;-67
2021/12/21 14:58:10;;;;;;;;;30.00;22.75;;;;;;;;5032638;28;45333;-67
2021/12/21 15:00:43;;;;;;;;;27.75;25.75;;;;;;;;5032431;28;46323;-67
2021/12/21 15:03:10;;;;;;;;;23.25;21.00;;;;;;;;5032843;28;45409;-66
2021/12/21 15:05:36;;;;;;;;;26.50;23.75;;;;;;;;5032079;28;45521;-65
2021/12/21 15:08:03;;;;;;;;;31.00;25.50;;;;;;;;5034119;28;45556;-67
2021/12/21 15:10:30;;;;;;;;;24.50;23.00;;;;;;;;5030174;28;46157;-66
2021/12/21 15:12:55;;;;;;;;;26.25;25.25;;;;;;;;5029104;28;45414;-65
2021/12/21 15:15:22;;;;;;;;;27.00;24.00;;;;;;;;5030544;28;45428;-66
2021/12/21 15:17:48;;;;;;;;;20.75;19.00;;;;;;;;5030684;28;45496;-66